sensor_id;sensor_type;location;lat;lon;timestamp;temperature;humidity
22852;DHT22;11592;45.460;9.240;2022-11-27T00:01:42;6.90;99.90
22852;DHT22;11592;45.460;9.240;2022-11-27T00:04:10;6.90;99.90
22852;DHT22;11592;45.460;9.240;2022-11-27T00:06:39;6.90;99.90
22852;DHT22;11592;45.460;9.240;2022-11-27T00:09:12;6.90;99.90
22852;DHT22;11592;45.460;9.240;2022-11-27T00:11:40;6.80;99.90
22852;DHT22;11592;45.460;9.240;2022-11-27T00:14:11;6.80;99.90
22852;DHT22;11592;45.460;9.240;2022-11-27T00:16:38;6.90;99.90
22852;DHT22;11592;45.460;9.240;2022-11-27T00:19:05;6.80;99.90
22852;DHT22;11592;45.460;9.240;2022-11-27T00:21:34;6.80;99.90
22852;DHT22;11592;45.460;9.240;2022-11-27T00:24:04;6.80;99.90
22852;DHT22;11592;45.460;9.240;2022-11-27T00:26:32;6.80;99.90
22852;DHT22;11592;45.460;9.240;2022-11-27T00:29:04;6.70;99.90
22852;DHT22;11592;45.460;9.240;2022-11-27T00:31:32;6.70;99.90
22852;DHT22;11592;45.460;9.240;2022-11-27T00:34:02;6.80;99.90
22852;DHT22;11592;45.460;9.240;2022-11-27T00:36:31;6.80;99.90
22852;DHT22;11592;45.460;9.240;2022-11-27T00:38:57;6.70;99.90
22852;DHT22;11592;45.460;9.240;2022-11-27T00:41:27;6.70;99.90
22852;DHT22;11592;45.460;9.240;2022-11-27T00:43:54;6.60;99.90
22852;DHT22;11592;45.460;9.240;2022-11-27T00:46:27;6.60;99.90
22852;DHT22;11592;45.460;9.240;2022-11-27T00:48:59;6.50;99.90
22852;DHT22;11592;45.460;9.240;2022-11-27T00:51:27;6.50;99.90
22852;DHT22;11592;45.460;9.240;2022-11-27T00:53:54;6.50;99.90
22852;DHT22;11592;45.460;9.240;2022-11-27T00:56:27;6.50;99.90
22852;DHT22;11592;45.460;9.240;2022-11-27T00:58:55;6.50;99.90
22852;DHT22;11592;45.460;9.240;2022-11-27T01:01:37;6.40;99.90
22852;DHT22;11592;45.460;9.240;2022-11-27T01:04:05;6.40;99.90
22852;DHT22;11592;45.460;9.240;2022-11-27T01:06:33;6.40;99.90
22852;DHT22;11592;45.460;9.240;2022-11-27T01:09:00;6.40;99.90
22852;DHT22;11592;45.460;9.240;2022-11-27T01:11:29;6.40;99.90
22852;DHT22;11592;45.460;9.240;2022-11-27T01:13:59;6.40;99.90
22852;DHT22;11592;45.460;9.240;2022-11-27T01:16:27;6.40;99.90
22852;DHT22;11592;45.460;9.240;2022-11-27T01:18:56;6.40;99.90
22852;DHT22;11592;45.460;9.240;2022-11-27T01:21:25;6.50;99.90
22852;DHT22;11592;45.460;9.240;2022-11-27T01:23:52;6.50;99.90
22852;DHT22;11592;45.460;9.240;2022-11-27T01:26:20;6.50;99.90
22852;DHT22;11592;45.460;9.240;2022-11-27T01:28:50;6.50;99.90
22852;DHT22;11592;45.460;9.240;2022-11-27T01:31:20;6.40;99.90
22852;DHT22;11592;45.460;9.240;2022-11-27T01:33:52;6.40;99.90
22852;DHT22;11592;45.460;9.240;2022-11-27T01:36:19;6.30;99.90
22852;DHT22;11592;45.460;9.240;2022-11-27T01:38:46;6.40;99.90
22852;DHT22;11592;45.460;9.240;2022-11-27T01:41:25;6.30;99.90
22852;DHT22;11592;45.460;9.240;2022-11-27T01:43:58;6.30;99.90
22852;DHT22;11592;45.460;9.240;2022-11-27T01:52:01;6.30;99.90
22852;DHT22;11592;45.460;9.240;2022-11-27T01:54:33;6.20;99.90
22852;DHT22;11592;45.460;9.240;2022-11-27T01:57:10;6.20;99.90
22852;DHT22;11592;45.460;9.240;2022-11-27T01:59:38;6.30;99.90
22852;DHT22;11592;45.460;9.240;2022-11-27T02:02:05;6.20;99.90
22852;DHT22;11592;45.460;9.240;2022-11-27T02:04:32;6.20;99.90
22852;DHT22;11592;45.460;9.240;2022-11-27T02:06:59;6.20;99.90
22852;DHT22;11592;45.460;9.240;2022-11-27T02:09:27;6.20;99.90
22852;DHT22;11592;45.460;9.240;2022-11-27T02:14:31;6.20;99.90
22852;DHT22;11592;45.460;9.240;2022-11-27T02:17:06;6.20;99.90
22852;DHT22;11592;45.460;9.240;2022-11-27T02:19:54;6.20;99.90
22852;DHT22;11592;45.460;9.240;2022-11-27T02:25:19;6.10;99.90
22852;DHT22;11592;45.460;9.240;2022-11-27T02:30:44;6.30;99.90
22852;DHT22;11592;45.460;9.240;2022-11-27T02:33:15;6.40;99.90
22852;DHT22;11592;45.460;9.240;2022-11-27T02:35:54;6.50;99.90
22852;DHT22;11592;45.460;9.240;2022-11-27T02:38:38;6.50;99.90
22852;DHT22;11592;45.460;9.240;2022-11-27T02:41:37;6.30;99.90
22852;DHT22;11592;45.460;9.240;2022-11-27T02:44:06;6.40;99.90
22852;DHT22;11592;45.460;9.240;2022-11-27T02:46:36;6.30;99.90
22852;DHT22;11592;45.460;9.240;2022-11-27T02:49:10;6.40;99.90
22852;DHT22;11592;45.460;9.240;2022-11-27T02:51:52;6.50;99.90
22852;DHT22;11592;45.460;9.240;2022-11-27T02:54:27;6.40;99.90
22852;DHT22;11592;45.460;9.240;2022-11-27T02:56:57;6.50;99.90
22852;DHT22;11592;45.460;9.240;2022-11-27T02:59:28;6.50;99.90
22852;DHT22;11592;45.460;9.240;2022-11-27T03:01:59;6.30;99.90
22852;DHT22;11592;45.460;9.240;2022-11-27T03:04:31;6.30;99.90
22852;DHT22;11592;45.460;9.240;2022-11-27T03:07:08;6.20;99.90
22852;DHT22;11592;45.460;9.240;2022-11-27T03:09:43;6.10;99.90
22852;DHT22;11592;45.460;9.240;2022-11-27T03:12:13;6.00;99.90
22852;DHT22;11592;45.460;9.240;2022-11-27T03:14:41;6.00;99.90
22852;DHT22;11592;45.460;9.240;2022-11-27T03:22:29;6.10;99.90
22852;DHT22;11592;45.460;9.240;2022-11-27T03:24:58;6.00;99.90
22852;DHT22;11592;45.460;9.240;2022-11-27T03:27:30;6.00;99.90
22852;DHT22;11592;45.460;9.240;2022-11-27T03:30:00;5.90;99.90
22852;DHT22;11592;45.460;9.240;2022-11-27T03:32:28;6.00;99.90
22852;DHT22;11592;45.460;9.240;2022-11-27T03:34:56;5.90;99.90
22852;DHT22;11592;45.460;9.240;2022-11-27T03:37:23;5.90;99.90
22852;DHT22;11592;45.460;9.240;2022-11-27T03:39:50;5.80;99.90
22852;DHT22;11592;45.460;9.240;2022-11-27T03:42:24;5.80;99.90
22852;DHT22;11592;45.460;9.240;2022-11-27T03:58:15;5.60;99.90
22852;DHT22;11592;45.460;9.240;2022-11-27T04:00:47;5.50;99.90
22852;DHT22;11592;45.460;9.240;2022-11-27T04:03:25;5.50;99.90
22852;DHT22;11592;45.460;9.240;2022-11-27T04:05:52;5.50;99.90
22852;DHT22;11592;45.460;9.240;2022-11-27T04:08:19;5.40;99.90
22852;DHT22;11592;45.460;9.240;2022-11-27T04:10:46;5.30;99.90
22852;DHT22;11592;45.460;9.240;2022-11-27T04:13:14;5.40;99.90
22852;DHT22;11592;45.460;9.240;2022-11-27T04:15:41;5.40;99.90
22852;DHT22;11592;45.460;9.240;2022-11-27T04:18:07;5.40;99.90
22852;DHT22;11592;45.460;9.240;2022-11-27T04:20:34;5.30;99.90
22852;DHT22;11592;45.460;9.240;2022-11-27T04:23:01;5.30;99.90
22852;DHT22;11592;45.460;9.240;2022-11-27T04:25:28;5.30;99.90
22852;DHT22;11592;45.460;9.240;2022-11-27T04:27:55;5.20;99.90
22852;DHT22;11592;45.460;9.240;2022-11-27T04:30:22;5.20;99.90
22852;DHT22;11592;45.460;9.240;2022-11-27T04:32:48;5.20;99.90
22852;DHT22;11592;45.460;9.240;2022-11-27T04:35:15;5.20;99.90
22852;DHT22;11592;45.460;9.240;2022-11-27T04:37:42;5.20;99.90
22852;DHT22;11592;45.460;9.240;2022-11-27T04:40:09;5.20;99.90
22852;DHT22;11592;45.460;9.240;2022-11-27T04:42:36;5.20;99.90
22852;DHT22;11592;45.460;9.240;2022-11-27T04:45:03;5.20;99.90
22852;DHT22;11592;45.460;9.240;2022-11-27T04:47:30;5.10;99.90
22852;DHT22;11592;45.460;9.240;2022-11-27T04:49:56;5.10;99.90
22852;DHT22;11592;45.460;9.240;2022-11-27T04:52:23;5.10;99.90
22852;DHT22;11592;45.460;9.240;2022-11-27T04:54:50;5.10;99.90
22852;DHT22;11592;45.460;9.240;2022-11-27T04:57:24;5.10;99.90
22852;DHT22;11592;45.460;9.240;2022-11-27T04:59:50;5.10;99.90
22852;DHT22;11592;45.460;9.240;2022-11-27T05:02:17;5.00;99.90
22852;DHT22;11592;45.460;9.240;2022-11-27T05:04:44;5.00;99.90
22852;DHT22;11592;45.460;9.240;2022-11-27T05:07:11;5.00;99.90
22852;DHT22;11592;45.460;9.240;2022-11-27T05:09:38;5.00;99.90
22852;DHT22;11592;45.460;9.240;2022-11-27T05:12:04;4.90;99.90
22852;DHT22;11592;45.460;9.240;2022-11-27T05:14:32;4.90;99.90
22852;DHT22;11592;45.460;9.240;2022-11-27T05:16:59;4.90;99.90
22852;DHT22;11592;45.460;9.240;2022-11-27T05:19:28;4.80;99.90
22852;DHT22;11592;45.460;9.240;2022-11-27T05:21:55;4.90;99.90
22852;DHT22;11592;45.460;9.240;2022-11-27T05:24:24;4.80;99.90
22852;DHT22;11592;45.460;9.240;2022-11-27T05:26:51;4.80;99.90
22852;DHT22;11592;45.460;9.240;2022-11-27T05:29:18;4.80;99.90
22852;DHT22;11592;45.460;9.240;2022-11-27T05:31:45;4.80;99.90
22852;DHT22;11592;45.460;9.240;2022-11-27T05:34:12;4.80;99.90
22852;DHT22;11592;45.460;9.240;2022-11-27T05:36:39;4.80;99.90
22852;DHT22;11592;45.460;9.240;2022-11-27T05:39:07;4.80;99.90
22852;DHT22;11592;45.460;9.240;2022-11-27T05:41:37;4.80;99.90
22852;DHT22;11592;45.460;9.240;2022-11-27T05:44:05;4.80;99.90
22852;DHT22;11592;45.460;9.240;2022-11-27T05:46:32;4.80;99.90
22852;DHT22;11592;45.460;9.240;2022-11-27T05:48:59;4.80;99.90
22852;DHT22;11592;45.460;9.240;2022-11-27T05:51:25;4.80;99.90
22852;DHT22;11592;45.460;9.240;2022-11-27T05:53:52;4.80;99.90
22852;DHT22;11592;45.460;9.240;2022-11-27T05:56:19;4.80;99.90
22852;DHT22;11592;45.460;9.240;2022-11-27T05:58:47;4.80;99.90
22852;DHT22;11592;45.460;9.240;2022-11-27T06:01:15;4.70;99.90
22852;DHT22;11592;45.460;9.240;2022-11-27T06:03:43;4.70;99.90
22852;DHT22;11592;45.460;9.240;2022-11-27T06:06:16;4.70;99.90
22852;DHT22;11592;45.460;9.240;2022-11-27T06:08:43;4.80;99.90
22852;DHT22;11592;45.460;9.240;2022-11-27T06:11:21;4.80;99.90
22852;DHT22;11592;45.460;9.240;2022-11-27T06:13:49;4.80;99.90
22852;DHT22;11592;45.460;9.240;2022-11-27T06:16:18;4.80;99.90
22852;DHT22;11592;45.460;9.240;2022-11-27T06:18:48;4.80;99.90
22852;DHT22;11592;45.460;9.240;2022-11-27T06:21:16;4.80;99.90
22852;DHT22;11592;45.460;9.240;2022-11-27T06:23:44;4.80;99.90
22852;DHT22;11592;45.460;9.240;2022-11-27T06:28:42;4.70;99.90
22852;DHT22;11592;45.460;9.240;2022-11-27T06:31:12;4.70;99.90
22852;DHT22;11592;45.460;9.240;2022-11-27T06:33:47;4.70;99.90
22852;DHT22;11592;45.460;9.240;2022-11-27T06:36:15;4.70;99.90
22852;DHT22;11592;45.460;9.240;2022-11-27T06:38:42;4.70;99.90
22852;DHT22;11592;45.460;9.240;2022-11-27T06:41:20;4.70;99.90
22852;DHT22;11592;45.460;9.240;2022-11-27T06:43:47;4.70;99.90
22852;DHT22;11592;45.460;9.240;2022-11-27T06:46:15;4.70;99.90
22852;DHT22;11592;45.460;9.240;2022-11-27T06:48:43;4.70;99.90
22852;DHT22;11592;45.460;9.240;2022-11-27T06:51:13;4.80;99.90
22852;DHT22;11592;45.460;9.240;2022-11-27T06:53:40;4.80;99.90
22852;DHT22;11592;45.460;9.240;2022-11-27T06:56:09;4.80;99.90
22852;DHT22;11592;45.460;9.240;2022-11-27T06:58:37;4.70;99.90
22852;DHT22;11592;45.460;9.240;2022-11-27T07:01:07;4.70;99.90
22852;DHT22;11592;45.460;9.240;2022-11-27T07:03:34;4.70;99.90
22852;DHT22;11592;45.460;9.240;2022-11-27T07:06:03;4.70;99.90
22852;DHT22;11592;45.460;9.240;2022-11-27T07:08:30;4.80;99.90
22852;DHT22;11592;45.460;9.240;2022-11-27T07:11:18;4.80;99.90
22852;DHT22;11592;45.460;9.240;2022-11-27T07:13:46;4.80;99.90
22852;DHT22;11592;45.460;9.240;2022-11-27T07:16:14;4.90;99.90
22852;DHT22;11592;45.460;9.240;2022-11-27T07:18:44;4.90;99.90
22852;DHT22;11592;45.460;9.240;2022-11-27T07:21:11;5.00;99.90
22852;DHT22;11592;45.460;9.240;2022-11-27T07:23:38;5.10;99.90
22852;DHT22;11592;45.460;9.240;2022-11-27T07:26:20;5.10;99.90
22852;DHT22;11592;45.460;9.240;2022-11-27T07:28:47;5.10;99.90
22852;DHT22;11592;45.460;9.240;2022-11-27T07:31:23;5.00;99.90
22852;DHT22;11592;45.460;9.240;2022-11-27T07:33:50;5.10;99.90
22852;DHT22;11592;45.460;9.240;2022-11-27T07:36:28;5.10;99.90
22852;DHT22;11592;45.460;9.240;2022-11-27T07:38:55;5.20;99.90
22852;DHT22;11592;45.460;9.240;2022-11-27T07:41:23;5.30;99.90
22852;DHT22;11592;45.460;9.240;2022-11-27T07:43:57;5.50;99.90
22852;DHT22;11592;45.460;9.240;2022-11-27T07:46:24;5.40;99.90
22852;DHT22;11592;45.460;9.240;2022-11-27T07:48:51;5.60;99.90
22852;DHT22;11592;45.460;9.240;2022-11-27T07:51:20;5.70;99.90
22852;DHT22;11592;45.460;9.240;2022-11-27T07:53:47;5.70;99.90
22852;DHT22;11592;45.460;9.240;2022-11-27T07:56:17;5.60;99.90
22852;DHT22;11592;45.460;9.240;2022-11-27T07:58:44;5.70;99.90
22852;DHT22;11592;45.460;9.240;2022-11-27T08:01:14;5.80;99.90
22852;DHT22;11592;45.460;9.240;2022-11-27T08:03:41;6.00;99.90
22852;DHT22;11592;45.460;9.240;2022-11-27T08:06:16;6.10;99.90
22852;DHT22;11592;45.460;9.240;2022-11-27T08:08:43;6.30;99.90
22852;DHT22;11592;45.460;9.240;2022-11-27T08:11:18;6.40;99.90
22852;DHT22;11592;45.460;9.240;2022-11-27T08:13:46;6.40;99.90
22852;DHT22;11592;45.460;9.240;2022-11-27T08:16:13;6.40;99.90
22852;DHT22;11592;45.460;9.240;2022-11-27T08:18:40;6.50;99.90
22852;DHT22;11592;45.460;9.240;2022-11-27T08:21:07;6.70;99.90
22852;DHT22;11592;45.460;9.240;2022-11-27T08:23:34;6.80;99.90
22852;DHT22;11592;45.460;9.240;2022-11-27T08:26:04;6.90;99.90
22852;DHT22;11592;45.460;9.240;2022-11-27T08:28:32;7.00;99.90
22852;DHT22;11592;45.460;9.240;2022-11-27T08:31:00;7.10;99.90
22852;DHT22;11592;45.460;9.240;2022-11-27T08:33:28;7.20;99.90
22852;DHT22;11592;45.460;9.240;2022-11-27T08:35:54;7.30;99.90
22852;DHT22;11592;45.460;9.240;2022-11-27T08:38:22;7.40;99.90
22852;DHT22;11592;45.460;9.240;2022-11-27T08:40:59;7.40;99.90
22852;DHT22;11592;45.460;9.240;2022-11-27T08:43:27;7.60;99.90
22852;DHT22;11592;45.460;9.240;2022-11-27T08:45:54;7.70;99.90
22852;DHT22;11592;45.460;9.240;2022-11-27T08:48:22;7.70;99.90
22852;DHT22;11592;45.460;9.240;2022-11-27T08:50:49;7.70;99.90
22852;DHT22;11592;45.460;9.240;2022-11-27T08:53:16;7.80;99.90
22852;DHT22;11592;45.460;9.240;2022-11-27T08:55:44;7.90;99.90
22852;DHT22;11592;45.460;9.240;2022-11-27T08:58:11;7.90;99.90
22852;DHT22;11592;45.460;9.240;2022-11-27T09:00:38;8.00;99.90
22852;DHT22;11592;45.460;9.240;2022-11-27T09:03:05;8.10;99.90
22852;DHT22;11592;45.460;9.240;2022-11-27T09:05:32;8.20;99.90
22852;DHT22;11592;45.460;9.240;2022-11-27T09:07:59;8.30;99.90
22852;DHT22;11592;45.460;9.240;2022-11-27T09:10:28;8.30;99.90
22852;DHT22;11592;45.460;9.240;2022-11-27T09:12:55;8.40;99.90
22852;DHT22;11592;45.460;9.240;2022-11-27T09:15:22;8.40;99.90
22852;DHT22;11592;45.460;9.240;2022-11-27T09:17:48;8.50;99.90
22852;DHT22;11592;45.460;9.240;2022-11-27T09:20:15;8.60;99.90
22852;DHT22;11592;45.460;9.240;2022-11-27T09:22:42;8.60;99.90
22852;DHT22;11592;45.460;9.240;2022-11-27T09:25:09;8.70;99.90
22852;DHT22;11592;45.460;9.240;2022-11-27T09:27:36;8.70;99.90
22852;DHT22;11592;45.460;9.240;2022-11-27T09:30:06;8.80;99.90
22852;DHT22;11592;45.460;9.240;2022-11-27T09:32:33;8.90;99.90
22852;DHT22;11592;45.460;9.240;2022-11-27T09:35:00;9.00;99.90
22852;DHT22;11592;45.460;9.240;2022-11-27T09:37:27;9.10;99.90
22852;DHT22;11592;45.460;9.240;2022-11-27T09:39:54;9.30;99.90
22852;DHT22;11592;45.460;9.240;2022-11-27T09:42:35;9.30;99.90
22852;DHT22;11592;45.460;9.240;2022-11-27T09:45:06;9.40;99.90
22852;DHT22;11592;45.460;9.240;2022-11-27T09:47:52;9.40;99.90
22852;DHT22;11592;45.460;9.240;2022-11-27T09:50:27;9.40;99.90
22852;DHT22;11592;45.460;9.240;2022-11-27T09:53:26;9.50;99.90
22852;DHT22;11592;45.460;9.240;2022-11-27T09:55:56;9.60;99.90
22852;DHT22;11592;45.460;9.240;2022-11-27T09:58:49;9.70;99.90
22852;DHT22;11592;45.460;9.240;2022-11-27T10:01:29;9.80;99.90
22852;DHT22;11592;45.460;9.240;2022-11-27T10:04:07;9.90;99.90
22852;DHT22;11592;45.460;9.240;2022-11-27T10:09:28;10.60;99.90
22852;DHT22;11592;45.460;9.240;2022-11-27T10:17:18;10.30;99.90
22852;DHT22;11592;45.460;9.240;2022-11-27T10:27:32;10.10;99.90
22852;DHT22;11592;45.460;9.240;2022-11-27T10:30:03;10.10;99.90
22852;DHT22;11592;45.460;9.240;2022-11-27T10:32:39;10.10;99.90
22852;DHT22;11592;45.460;9.240;2022-11-27T10:35:24;10.10;99.90
22852;DHT22;11592;45.460;9.240;2022-11-27T10:38:05;10.20;99.90
22852;DHT22;11592;45.460;9.240;2022-11-27T10:40:40;10.20;99.90
22852;DHT22;11592;45.460;9.240;2022-11-27T10:43:20;10.30;99.90
22852;DHT22;11592;45.460;9.240;2022-11-27T10:45:49;10.40;99.90
22852;DHT22;11592;45.460;9.240;2022-11-27T10:48:17;10.40;99.90
22852;DHT22;11592;45.460;9.240;2022-11-27T10:50:45;10.50;99.90
22852;DHT22;11592;45.460;9.240;2022-11-27T11:01:01;10.70;99.90
22852;DHT22;11592;45.460;9.240;2022-11-27T11:03:29;10.80;99.90
22852;DHT22;11592;45.460;9.240;2022-11-27T11:05:59;10.90;99.90
22852;DHT22;11592;45.460;9.240;2022-11-27T11:08:47;10.90;99.90
22852;DHT22;11592;45.460;9.240;2022-11-27T11:11:24;11.00;99.90
22852;DHT22;11592;45.460;9.240;2022-11-27T11:13:51;11.10;99.90
22852;DHT22;11592;45.460;9.240;2022-11-27T11:16:24;11.30;99.90
22852;DHT22;11592;45.460;9.240;2022-11-27T11:18:59;12.10;99.90
22852;DHT22;11592;45.460;9.240;2022-11-27T11:21:33;13.30;99.90
22852;DHT22;11592;45.460;9.240;2022-11-27T11:26:55;17.40;99.90
22852;DHT22;11592;45.460;9.240;2022-11-27T11:29:34;19.70;98.00
22852;DHT22;11592;45.460;9.240;2022-11-27T11:34:49;27.20;73.00
22852;DHT22;11592;45.460;9.240;2022-11-27T11:37:31;28.00;64.70
22852;DHT22;11592;45.460;9.240;2022-11-27T11:40:04;29.60;60.40
22852;DHT22;11592;45.460;9.240;2022-11-27T11:42:37;28.70;56.90
22852;DHT22;11592;45.460;9.240;2022-11-27T11:45:17;29.70;54.40
22852;DHT22;11592;45.460;9.240;2022-11-27T11:47:49;30.70;50.70
22852;DHT22;11592;45.460;9.240;2022-11-27T11:50:41;31.30;51.20
22852;DHT22;11592;45.460;9.240;2022-11-27T11:58:55;29.50;51.90
22852;DHT22;11592;45.460;9.240;2022-11-27T12:07:14;29.10;51.00
22852;DHT22;11592;45.460;9.240;2022-11-27T12:15:17;30.10;50.20
22852;DHT22;11592;45.460;9.240;2022-11-27T12:18:00;30.00;48.40
22852;DHT22;11592;45.460;9.240;2022-11-27T12:37:52;28.80;48.90
22852;DHT22;11592;45.460;9.240;2022-11-27T12:43:24;28.40;49.10
22852;DHT22;11592;45.460;9.240;2022-11-27T12:46:32;28.30;50.40
22852;DHT22;11592;45.460;9.240;2022-11-27T12:49:19;28.30;50.10
22852;DHT22;11592;45.460;9.240;2022-11-27T12:51:57;28.40;50.00
22852;DHT22;11592;45.460;9.240;2022-11-27T12:54:46;28.30;50.10
22852;DHT22;11592;45.460;9.240;2022-11-27T12:57:38;28.30;50.30
22852;DHT22;11592;45.460;9.240;2022-11-27T13:00:17;28.10;50.60
22852;DHT22;11592;45.460;9.240;2022-11-27T13:05:31;27.50;51.30
22852;DHT22;11592;45.460;9.240;2022-11-27T13:08:16;27.70;50.00
22852;DHT22;11592;45.460;9.240;2022-11-27T13:11:10;27.20;49.80
22852;DHT22;11592;45.460;9.240;2022-11-27T13:13:56;26.70;50.90
22852;DHT22;11592;45.460;9.240;2022-11-27T13:16:37;26.60;52.40
22852;DHT22;11592;45.460;9.240;2022-11-27T13:21:44;26.50;52.50
22852;DHT22;11592;45.460;9.240;2022-11-27T13:24:12;26.80;52.60
22852;DHT22;11592;45.460;9.240;2022-11-27T13:32:01;25.80;54.10
22852;DHT22;11592;45.460;9.240;2022-11-27T13:34:31;25.80;54.30
22852;DHT22;11592;45.460;9.240;2022-11-27T13:37:02;25.40;54.30
22852;DHT22;11592;45.460;9.240;2022-11-27T13:44:41;24.50;54.40
22852;DHT22;11592;45.460;9.240;2022-11-27T13:47:17;23.90;56.10
22852;DHT22;11592;45.460;9.240;2022-11-27T13:50:00;23.60;56.20
22852;DHT22;11592;45.460;9.240;2022-11-27T13:52:27;23.60;57.30
22852;DHT22;11592;45.460;9.240;2022-11-27T13:54:57;23.00;57.40
22852;DHT22;11592;45.460;9.240;2022-11-27T13:57:25;22.40;59.10
22852;DHT22;11592;45.460;9.240;2022-11-27T14:05:16;19.80;64.00
22852;DHT22;11592;45.460;9.240;2022-11-27T14:07:54;18.30;67.70
22852;DHT22;11592;45.460;9.240;2022-11-27T14:10:24;17.20;72.20
22852;DHT22;11592;45.460;9.240;2022-11-27T14:13:04;16.40;76.10
22852;DHT22;11592;45.460;9.240;2022-11-27T14:15:36;15.90;79.70
22852;DHT22;11592;45.460;9.240;2022-11-27T14:18:23;15.60;83.70
22852;DHT22;11592;45.460;9.240;2022-11-27T14:20:55;15.30;86.60
22852;DHT22;11592;45.460;9.240;2022-11-27T14:23:35;15.10;88.80
22852;DHT22;11592;45.460;9.240;2022-11-27T14:28:48;14.60;92.40
22852;DHT22;11592;45.460;9.240;2022-11-27T14:31:31;14.50;93.70
22852;DHT22;11592;45.460;9.240;2022-11-27T14:33:58;14.20;95.20
22852;DHT22;11592;45.460;9.240;2022-11-27T14:36:51;14.10;96.50
22852;DHT22;11592;45.460;9.240;2022-11-27T14:39:28;13.80;97.60
22852;DHT22;11592;45.460;9.240;2022-11-27T14:41:56;13.80;98.50
22852;DHT22;11592;45.460;9.240;2022-11-27T14:44:23;13.60;99.00
22852;DHT22;11592;45.460;9.240;2022-11-27T14:46:51;13.50;99.90
22852;DHT22;11592;45.460;9.240;2022-11-27T14:49:19;13.40;99.90
22852;DHT22;11592;45.460;9.240;2022-11-27T14:51:47;13.50;99.90
22852;DHT22;11592;45.460;9.240;2022-11-27T14:54:27;13.40;99.90
22852;DHT22;11592;45.460;9.240;2022-11-27T14:56:54;13.30;99.90
22852;DHT22;11592;45.460;9.240;2022-11-27T14:59:23;13.20;99.90
22852;DHT22;11592;45.460;9.240;2022-11-27T15:04:33;12.80;99.90
22852;DHT22;11592;45.460;9.240;2022-11-27T15:10:36;12.60;99.90
22852;DHT22;11592;45.460;9.240;2022-11-27T15:13:04;12.50;99.90
22852;DHT22;11592;45.460;9.240;2022-11-27T15:15:38;12.30;99.90
22852;DHT22;11592;45.460;9.240;2022-11-27T15:18:12;12.30;99.90
22852;DHT22;11592;45.460;9.240;2022-11-27T15:20:44;12.10;99.90
22852;DHT22;11592;45.460;9.240;2022-11-27T15:23:29;12.00;99.90
22852;DHT22;11592;45.460;9.240;2022-11-27T15:31:33;11.90;99.90
22852;DHT22;11592;45.460;9.240;2022-11-27T15:36:46;11.50;99.90
22852;DHT22;11592;45.460;9.240;2022-11-27T15:39:30;11.30;99.90
22852;DHT22;11592;45.460;9.240;2022-11-27T15:42:02;11.20;99.90
22852;DHT22;11592;45.460;9.240;2022-11-27T15:44:30;11.20;99.90
22852;DHT22;11592;45.460;9.240;2022-11-27T15:47:00;11.10;99.90
22852;DHT22;11592;45.460;9.240;2022-11-27T15:49:28;11.00;99.90
22852;DHT22;11592;45.460;9.240;2022-11-27T15:51:55;10.90;99.90
22852;DHT22;11592;45.460;9.240;2022-11-27T15:54:23;10.80;99.90
22852;DHT22;11592;45.460;9.240;2022-11-27T15:56:50;10.70;99.90
22852;DHT22;11592;45.460;9.240;2022-11-27T15:59:17;10.70;99.90
22852;DHT22;11592;45.460;9.240;2022-11-27T16:01:46;10.60;99.90
22852;DHT22;11592;45.460;9.240;2022-11-27T16:04:15;10.60;99.90
22852;DHT22;11592;45.460;9.240;2022-11-27T16:06:42;10.50;99.90
22852;DHT22;11592;45.460;9.240;2022-11-27T16:09:09;10.40;99.90
22852;DHT22;11592;45.460;9.240;2022-11-27T16:11:36;10.30;99.90
22852;DHT22;11592;45.460;9.240;2022-11-27T16:14:03;10.30;99.90
22852;DHT22;11592;45.460;9.240;2022-11-27T16:16:29;10.30;99.90
22852;DHT22;11592;45.460;9.240;2022-11-27T16:18:58;10.20;99.90
22852;DHT22;11592;45.460;9.240;2022-11-27T16:21:27;10.20;99.90
22852;DHT22;11592;45.460;9.240;2022-11-27T16:24:02;10.10;99.90
22852;DHT22;11592;45.460;9.240;2022-11-27T16:26:30;10.10;99.90
22852;DHT22;11592;45.460;9.240;2022-11-27T16:28:57;10.00;99.90
22852;DHT22;11592;45.460;9.240;2022-11-27T16:31:24;10.00;99.90
22852;DHT22;11592;45.460;9.240;2022-11-27T16:33:52;10.00;99.90
22852;DHT22;11592;45.460;9.240;2022-11-27T16:36:20;9.90;99.90
22852;DHT22;11592;45.460;9.240;2022-11-27T16:38:47;9.90;99.90
22852;DHT22;11592;45.460;9.240;2022-11-27T16:41:16;9.90;99.90
22852;DHT22;11592;45.460;9.240;2022-11-27T16:43:45;9.80;99.90
22852;DHT22;11592;45.460;9.240;2022-11-27T16:48:42;9.70;99.90
22852;DHT22;11592;45.460;9.240;2022-11-27T16:51:11;9.70;99.90
22852;DHT22;11592;45.460;9.240;2022-11-27T16:53:39;9.60;99.90
22852;DHT22;11592;45.460;9.240;2022-11-27T16:56:08;9.60;99.90
22852;DHT22;11592;45.460;9.240;2022-11-27T16:58:38;9.60;99.90
22852;DHT22;11592;45.460;9.240;2022-11-27T17:01:06;9.60;99.90
22852;DHT22;11592;45.460;9.240;2022-11-27T17:03:34;9.60;99.90
22852;DHT22;11592;45.460;9.240;2022-11-27T17:06:06;9.50;99.90
22852;DHT22;11592;45.460;9.240;2022-11-27T17:08:33;9.50;99.90
22852;DHT22;11592;45.460;9.240;2022-11-27T17:11:30;9.40;99.90
22852;DHT22;11592;45.460;9.240;2022-11-27T17:14:04;9.30;99.90
22852;DHT22;11592;45.460;9.240;2022-11-27T17:16:32;9.30;99.90
22852;DHT22;11592;45.460;9.240;2022-11-27T17:18:59;9.30;99.90
22852;DHT22;11592;45.460;9.240;2022-11-27T17:21:29;9.30;99.90
22852;DHT22;11592;45.460;9.240;2022-11-27T17:23:58;9.20;99.90
22852;DHT22;11592;45.460;9.240;2022-11-27T17:26:27;9.20;99.90
22852;DHT22;11592;45.460;9.240;2022-11-27T17:28:54;9.20;99.90
22852;DHT22;11592;45.460;9.240;2022-11-27T17:31:29;9.20;99.90
22852;DHT22;11592;45.460;9.240;2022-11-27T17:33:58;9.10;99.90
22852;DHT22;11592;45.460;9.240;2022-11-27T17:36:26;9.10;99.90
22852;DHT22;11592;45.460;9.240;2022-11-27T17:39:03;9.10;99.90
22852;DHT22;11592;45.460;9.240;2022-11-27T17:41:30;9.10;99.90
22852;DHT22;11592;45.460;9.240;2022-11-27T17:43:57;9.10;99.90
22852;DHT22;11592;45.460;9.240;2022-11-27T17:46:26;9.10;99.90
22852;DHT22;11592;45.460;9.240;2022-11-27T17:48:53;9.10;99.90
22852;DHT22;11592;45.460;9.240;2022-11-27T17:51:21;9.10;99.90
22852;DHT22;11592;45.460;9.240;2022-11-27T17:53:48;9.00;99.90
22852;DHT22;11592;45.460;9.240;2022-11-27T17:56:18;8.90;99.90
22852;DHT22;11592;45.460;9.240;2022-11-27T17:58:46;8.90;99.90
22852;DHT22;11592;45.460;9.240;2022-11-27T18:01:21;8.90;99.90
22852;DHT22;11592;45.460;9.240;2022-11-27T18:03:49;8.80;99.90
22852;DHT22;11592;45.460;9.240;2022-11-27T18:06:17;8.80;99.90
22852;DHT22;11592;45.460;9.240;2022-11-27T18:08:45;8.80;99.90
22852;DHT22;11592;45.460;9.240;2022-11-27T18:11:14;8.90;99.90
22852;DHT22;11592;45.460;9.240;2022-11-27T18:13:42;8.90;99.90
22852;DHT22;11592;45.460;9.240;2022-11-27T18:16:11;9.00;99.90
22852;DHT22;11592;45.460;9.240;2022-11-27T18:18:39;9.00;99.90
22852;DHT22;11592;45.460;9.240;2022-11-27T18:21:08;9.00;99.90
22852;DHT22;11592;45.460;9.240;2022-11-27T18:23:42;8.90;99.90
22852;DHT22;11592;45.460;9.240;2022-11-27T18:26:29;8.80;99.90
22852;DHT22;11592;45.460;9.240;2022-11-27T18:29:16;8.80;99.90